createdAt,value
2022-11-01T00:01:52.730Z,98024.91
2022-11-01T00:04:19.488Z,98026.59
2022-11-01T00:06:46.305Z,98012.72
2022-11-01T00:09:13.196Z,98007.94
2022-11-01T00:11:40.022Z,98005.63
2022-11-01T00:14:06.960Z,97997.63
2022-11-01T00:16:33.630Z,98003.78
2022-11-01T00:19:00.056Z,97997.69
2022-11-01T00:21:26.483Z,98007.38
2022-11-01T00:23:52.949Z,98013.09
2022-11-01T00:26:23.157Z,97983.56
2022-11-01T00:28:50.648Z,97993.25
2022-11-01T00:31:19.751Z,97997.09
2022-11-01T00:33:46.538Z,98005.13
2022-11-01T00:36:13.368Z,97989.22
2022-11-01T00:38:40.046Z,98000.28
2022-11-01T00:41:06.793Z,98011.59
2022-11-01T00:43:35.136Z,98005.16
2022-11-01T00:46:01.695Z,97994.94
2022-11-01T00:48:28.373Z,97994.69
2022-11-01T00:50:54.900Z,97980.97
2022-11-01T00:53:21.676Z,97995.50
2022-11-01T00:55:48.213Z,97985.28
2022-11-01T00:58:14.687Z,97989.88
2022-11-01T01:00:41.190Z,97979.38
2022-11-01T01:03:07.726Z,97984.75
2022-11-01T01:05:35.489Z,97978.84
2022-11-01T01:08:02.426Z,97987.97
2022-11-01T01:10:28.991Z,97985.88
2022-11-01T01:12:55.443Z,97987.97
2022-11-01T01:15:21.850Z,97996.28
2022-11-01T01:17:48.345Z,97999.50
2022-11-01T01:20:15.060Z,97990.09
2022-11-01T01:22:42.452Z,97993.88
2022-11-01T01:25:10.325Z,97991.22
2022-11-01T01:27:37.110Z,97982.00
2022-11-01T01:30:07.894Z,97990.09
2022-11-01T01:32:35.576Z,97986.03
2022-11-01T01:35:02.124Z,97988.69
2022-11-01T01:37:28.520Z,97982.53
2022-11-01T01:39:55.194Z,97975.81
2022-11-01T01:42:41.763Z,97987.88
2022-11-01T01:45:28.110Z,97983.56
2022-11-01T01:47:58.758Z,97991.06
2022-11-01T01:50:30.255Z,97992.97
2022-11-01T01:52:56.596Z,97988.94
2022-11-01T01:55:29.213Z,97991.66
2022-11-01T01:57:57.889Z,97993.25
2022-11-01T02:00:25.254Z,97990.84
2022-11-01T02:02:52.184Z,97982.97
2022-11-01T02:05:31.620Z,97990.28
2022-11-01T02:07:59.348Z,97982.75
2022-11-01T02:10:28.079Z,97977.13
2022-11-01T02:12:56.385Z,97968.50
2022-11-01T02:15:29.111Z,97956.41
2022-11-01T02:17:55.468Z,97969.63
2022-11-01T02:20:21.884Z,97976.88
2022-11-01T02:23:19.672Z,97985.44
2022-11-01T02:25:56.076Z,98006.34
2022-11-01T02:28:31.321Z,98045.56
2022-11-01T02:31:06.789Z,98053.22
2022-11-01T02:33:44.886Z,98032.19
2022-11-01T02:36:24.301Z,98039.34
2022-11-01T02:39:03.244Z,98043.31
2022-11-01T02:41:39.580Z,98037.56
2022-11-01T02:44:15.706Z,98039.38
2022-11-01T02:47:01.267Z,98015.88
2022-11-01T02:49:38.563Z,98049.34
2022-11-01T02:52:08.280Z,98040.59
2022-11-01T02:54:39.748Z,98033.03
2022-11-01T02:57:40.496Z,98033.25
2022-11-01T03:00:21.999Z,98031.63
2022-11-01T03:02:52.934Z,98028.88
2022-11-01T03:05:36.427Z,98024.03
2022-11-01T03:08:17.069Z,98027.16
2022-11-01T03:11:01.857Z,98022.84
2022-11-01T03:13:35.101Z,98030.72
2022-11-01T03:16:29.566Z,98032.91
2022-11-01T03:19:39.777Z,98032.91
2022-11-01T03:22:38.601Z,98026.59
2022-11-01T03:25:34.659Z,98038.13
2022-11-01T03:28:06.700Z,98041.31
2022-11-01T03:30:35.153Z,98039.38
2022-11-01T03:33:02.080Z,98043.97
2022-11-01T03:35:33.406Z,98038.13
2022-11-01T03:38:04.579Z,98035.53
2022-11-01T03:40:33.114Z,98037.31
2022-11-01T03:43:04.246Z,98045.19
2022-11-01T03:45:33.906Z,98053.22
2022-11-01T03:48:01.629Z,97961.47
2022-11-01T03:50:28.881Z,98056.47
2022-11-01T03:52:55.638Z,98054.78
2022-11-01T03:55:22.603Z,98065.00
2022-11-01T03:57:54.203Z,98058.13
2022-11-01T04:00:23.197Z,98068.03
2022-11-01T04:02:51.403Z,98037.25
2022-11-01T04:05:19.281Z,98080.63
2022-11-01T04:07:46.157Z,98079.91
2022-11-01T04:10:13.828Z,98073.88
2022-11-01T04:12:43.556Z,98059.31
2022-11-01T04:15:29.204Z,98068.53
2022-11-01T04:18:35.671Z,98063.34
2022-11-01T04:21:29.293Z,98083.41
2022-11-01T04:23:55.720Z,98083.69
2022-11-01T04:26:23.461Z,98084.97
2022-11-01T04:28:59.380Z,98079.63
2022-11-01T04:31:36.379Z,98086.28
2022-11-01T04:34:05.043Z,98006.75
2022-11-01T04:36:31.487Z,98075.56
2022-11-01T04:38:58.471Z,98084.97
2022-11-01T04:41:27.090Z,98094.13
2022-11-01T04:43:56.244Z,98101.44
2022-11-01T04:46:23.248Z,98102.00
2022-11-01T04:48:50.127Z,98102.19
2022-11-01T04:51:16.931Z,98058.84
2022-11-01T04:53:43.368Z,98103.28
2022-11-01T04:56:12.425Z,98093.72
2022-11-01T04:58:43.090Z,98110.63
2022-11-01T05:01:12.560Z,98027.53
2022-11-01T05:03:39.175Z,98063.34
2022-11-01T05:06:05.757Z,98108.72
2022-11-01T05:08:33.003Z,98106.72
2022-11-01T05:10:59.582Z,98114.53
2022-11-01T05:13:26.108Z,98120.94
2022-11-01T05:16:06.600Z,98128.50
2022-11-01T05:18:41.758Z,98121.81
2022-11-01T05:21:08.215Z,98129.13
2022-11-01T05:23:34.668Z,98115.09
2022-11-01T05:26:01.064Z,98128.16
2022-11-01T05:28:27.531Z,98126.84
2022-11-01T05:30:54.007Z,98144.38
2022-11-01T05:33:20.399Z,98143.75
2022-11-01T05:35:46.859Z,98155.78
2022-11-01T05:38:13.273Z,98117.53
2022-11-01T05:40:39.648Z,98158.03
2022-11-01T05:43:06.283Z,98155.78
2022-11-01T05:45:32.837Z,98163.41
2022-11-01T05:48:04.121Z,98164.16
2022-11-01T05:50:31.087Z,98149.03
2022-11-01T05:53:07.585Z,98175.25
2022-11-01T05:55:34.567Z,98183.22
2022-11-01T05:58:01.192Z,98171.53
2022-11-01T06:00:27.765Z,98182.47
2022-11-01T06:02:54.164Z,98177.38
2022-11-01T06:05:20.626Z,98166.16
2022-11-01T06:07:47.057Z,98180.31
2022-11-01T06:10:13.457Z,98178.41
2022-11-01T06:12:40.016Z,98185.81
2022-11-01T06:15:06.908Z,98193.03
2022-11-01T06:17:33.356Z,98201.56
2022-11-01T06:19:59.807Z,98197.69
2022-11-01T06:22:26.463Z,98212.69
2022-11-01T06:24:52.907Z,98213.94
2022-11-01T06:27:19.372Z,98216.69
2022-11-01T06:29:45.777Z,98220.81
2022-11-01T06:32:12.186Z,98218.63
2022-11-01T06:34:42.329Z,98215.94
2022-11-01T06:37:11.495Z,98223.56
2022-11-01T06:39:37.937Z,98237.78
2022-11-01T06:42:04.827Z,98209.69
2022-11-01T06:44:31.448Z,98215.88
2022-11-01T06:46:58.000Z,98232.94
2022-11-01T06:49:24.976Z,98238.28
2022-11-01T06:51:51.390Z,98235.34
2022-11-01T06:54:17.851Z,98218.94
2022-11-01T06:56:47.745Z,98246.34
2022-11-01T06:59:16.782Z,98248.69
2022-11-01T07:01:44.590Z,98252.19
2022-11-01T07:06:42.784Z,98266.56
2022-11-01T07:09:09.366Z,98270.38
2022-11-01T07:11:36.121Z,98269.09
2022-11-01T07:14:03.125Z,98274.47
2022-11-01T07:16:29.747Z,98255.81
2022-11-01T07:18:57.615Z,98281.69
2022-11-01T07:21:24.229Z,98290.91
2022-11-01T07:23:52.653Z,98295.44
2022-11-01T07:26:19.053Z,98293.31
2022-11-01T07:28:45.493Z,98296.75
2022-11-01T07:31:11.984Z,98298.06
2022-11-01T07:33:38.590Z,98298.88
2022-11-01T07:36:05.314Z,98296.28
2022-11-01T07:38:32.088Z,98300.47
2022-11-01T07:40:58.663Z,98300.47
2022-11-01T07:43:25.111Z,98305.06
2022-11-01T07:45:51.750Z,98305.38
2022-11-01T07:48:20.037Z,98305.91
2022-11-01T07:50:46.495Z,98304.25
2022-11-01T07:53:18.547Z,98307.47
2022-11-01T07:55:46.112Z,98320.81
2022-11-01T07:58:13.643Z,98318.28
2022-11-01T08:00:40.943Z,98324.63
2022-11-01T08:03:15.944Z,98292.47
2022-11-01T08:05:43.895Z,98329.44
2022-11-01T08:08:12.572Z,98327.00
2022-11-01T08:10:39.506Z,98327.50
2022-11-01T08:13:15.644Z,98337.81
2022-11-01T08:15:42.248Z,98346.44
2022-11-01T08:18:08.912Z,98350.16
2022-11-01T08:20:35.691Z,98353.84
2022-11-01T08:23:02.457Z,98361.28
2022-11-01T08:25:30.111Z,98364.22
2022-11-01T08:28:05.122Z,98324.22
2022-11-01T08:30:32.163Z,98375.13
2022-11-01T08:33:03.146Z,98377.81
2022-11-01T08:35:31.083Z,98389.91
2022-11-01T08:37:59.096Z,98398.75
2022-11-01T08:40:28.286Z,98405.31
2022-11-01T08:42:55.386Z,98418.13
2022-11-01T08:45:22.017Z,98417.66
2022-11-01T08:47:48.470Z,98420.78
2022-11-01T08:50:16.831Z,98422.13
2022-11-01T08:52:43.266Z,98426.31
2022-11-01T08:55:11.173Z,98414.13
2022-11-01T08:57:37.723Z,98423.06
2022-11-01T09:00:07.080Z,98376.75
2022-11-01T09:02:34.537Z,98430.13
2022-11-01T09:05:06.080Z,98439.22
2022-11-01T09:07:36.015Z,98435.13
2022-11-01T09:10:02.813Z,98431.03
2022-11-01T09:12:29.611Z,98442.31
2022-11-01T09:14:56.191Z,98439.00
2022-11-01T09:17:23.187Z,98453.09
2022-11-01T09:19:49.786Z,98449.41
2022-11-01T09:22:16.221Z,98451.00
2022-11-01T09:24:42.683Z,98448.53
2022-11-01T09:27:09.584Z,98448.63
2022-11-01T09:29:36.032Z,98460.53
2022-11-01T09:32:02.479Z,98427.63
2022-11-01T09:34:28.909Z,98468.06
2022-11-01T09:36:55.420Z,98473.53
2022-11-01T09:39:22.146Z,98469.09
2022-11-01T09:41:59.733Z,98466.88
2022-11-01T09:44:30.668Z,98478.84
2022-11-01T09:47:03.009Z,98465.75
2022-11-01T09:49:34.820Z,98474.19
2022-11-01T09:52:01.523Z,98494.72
2022-11-01T09:54:28.686Z,98481.03
2022-11-01T09:57:17.616Z,98488.19
2022-11-01T10:00:02.161Z,98491.03
2022-11-01T10:02:48.523Z,98496.19
2022-11-01T10:05:43.189Z,98498.34
2022-11-01T10:08:28.372Z,98492.94
2022-11-01T10:11:16.893Z,98489.56
2022-11-01T10:14:07.858Z,98490.25
2022-11-01T10:16:41.995Z,98494.53
2022-11-01T10:19:11.096Z,98491.72
2022-11-01T10:21:43.070Z,98483.28
2022-11-01T10:24:24.250Z,98484.94
2022-11-01T10:26:57.016Z,98488.44
2022-11-01T10:29:49.257Z,98482.09
2022-11-01T10:32:27.253Z,98489.63
2022-11-01T10:34:57.821Z,98476.03
2022-11-01T10:37:28.908Z,98477.31
2022-11-01T10:40:03.057Z,98485.78
2022-11-01T10:42:33.021Z,98482.38
2022-11-01T10:45:04.531Z,98446.66
2022-11-01T10:47:31.080Z,98476.41
2022-11-01T10:50:07.617Z,98478.84
2022-11-01T10:52:46.216Z,98479.56
2022-11-01T10:55:17.129Z,98481.13
2022-11-01T10:57:50.187Z,98438.88
2022-11-01T11:00:20.336Z,98481.75
2022-11-01T11:02:56.889Z,98482.28
2022-11-01T11:05:26.083Z,98480.09
2022-11-01T11:07:52.559Z,98479.88
2022-11-01T11:10:26.600Z,98484.16
2022-11-01T11:12:59.128Z,98483.19
2022-11-01T11:15:43.092Z,98474.44
2022-11-01T11:18:29.591Z,98486.34
2022-11-01T11:21:05.398Z,98487.00
2022-11-01T11:23:34.736Z,98497.44
2022-11-01T11:26:06.706Z,98487.50
2022-11-01T11:28:38.715Z,98482.00
2022-11-01T11:31:21.387Z,98493.25
2022-11-01T11:33:55.804Z,98489.50
2022-11-01T11:36:43.961Z,98489.50
2022-11-01T11:39:28.437Z,98493.94
2022-11-01T11:42:07.174Z,98486.41
2022-11-01T11:44:43.114Z,98485.88
2022-11-01T11:47:24.771Z,98481.53
2022-11-01T11:49:54.024Z,98479.19
2022-11-01T11:52:38.556Z,98487.38
2022-11-01T11:55:06.266Z,98478.59
2022-11-01T11:57:33.447Z,98475.03
2022-11-01T12:00:05.374Z,98479.19
2022-11-01T12:02:40.882Z,98481.13
2022-11-01T12:05:15.021Z,98482.38
2022-11-01T12:07:50.081Z,98471.06
2022-11-01T12:10:36.958Z,98467.06
2022-11-01T12:13:23.146Z,98468.44
2022-11-01T12:16:05.276Z,98470.91
2022-11-01T12:18:32.825Z,98415.44
2022-11-01T12:20:59.307Z,98464.03
2022-11-01T12:23:35.056Z,98375.97
2022-11-01T12:26:04.849Z,98465.16
2022-11-01T12:28:48.613Z,98459.94
2022-11-01T12:31:19.501Z,98462.63
2022-11-01T12:33:52.656Z,98461.59
2022-11-01T12:36:27.609Z,98465.81
2022-11-01T12:39:12.905Z,98466.75
2022-11-01T12:41:44.513Z,98469.66
2022-11-01T12:44:16.730Z,98467.31
2022-11-01T12:46:48.825Z,98459.81
2022-11-01T12:49:32.911Z,98467.38
2022-11-01T12:52:13.353Z,98464.69
2022-11-01T12:54:45.880Z,98451.44
2022-11-01T12:57:18.281Z,98447.56
2022-11-01T12:59:46.508Z,98453.09
2022-11-01T13:02:32.345Z,98457.34
2022-11-01T13:05:25.007Z,98458.31
2022-11-01T13:08:14.336Z,98450.19
2022-11-01T13:10:46.242Z,98461.94
2022-11-01T13:13:29.477Z,98460.41
2022-11-01T13:16:14.464Z,98459.72
2022-11-01T13:18:47.131Z,98460.00
2022-11-01T13:21:34.355Z,98461.16
2022-11-01T13:24:25.409Z,98462.63
2022-11-01T13:27:01.111Z,98459.81
2022-11-01T13:29:52.722Z,98467.69
2022-11-01T13:32:38.271Z,98470.28
2022-11-01T13:35:34.762Z,98452.56
2022-11-01T13:38:23.215Z,98439.56
2022-11-01T13:41:19.445Z,98472.41
2022-11-01T13:44:08.407Z,98469.97
2022-11-01T13:46:56.123Z,98479.75
2022-11-01T13:49:39.681Z,98478.78
2022-11-01T13:52:10.443Z,98467.44
2022-11-01T13:54:44.804Z,98476.66
2022-11-01T13:57:17.651Z,98465.09
2022-11-01T13:59:53.802Z,98470.81
2022-11-01T14:02:23.459Z,98471.94
2022-11-01T14:04:57.607Z,98473.72
2022-11-01T14:07:24.824Z,98476.47
2022-11-01T14:09:53.455Z,98486.41
2022-11-01T14:12:48.134Z,98468.69
2022-11-01T14:15:24.882Z,98486.41
2022-11-01T14:17:57.669Z,98454.19
2022-11-01T14:20:33.212Z,98481.38
2022-11-01T14:23:28.265Z,98471.44
2022-11-01T14:26:25.810Z,98477.63
2022-11-01T14:28:56.766Z,98485.09
2022-11-01T14:31:26.541Z,98476.31
2022-11-01T14:33:57.494Z,98476.56
2022-11-01T14:36:29.212Z,98469.09
2022-11-01T14:39:06.308Z,98470.31
2022-11-01T14:41:35.572Z,98475.59
2022-11-01T14:44:12.501Z,98473.06
2022-11-01T14:46:46.388Z,98473.34
2022-11-01T14:49:30.127Z,98477.06
2022-11-01T14:52:03.212Z,98481.28
2022-11-01T14:55:03.972Z,98484.53
2022-11-01T14:57:33.361Z,98477.69
2022-11-01T15:00:17.917Z,98471.03
2022-11-01T15:02:44.524Z,98487.78
2022-11-01T15:05:14.061Z,98473.44
2022-11-01T15:07:41.928Z,98484.63
2022-11-01T15:10:12.767Z,98487.94
2022-11-01T15:12:51.188Z,98485.00
2022-11-01T15:15:24.081Z,98495.00
2022-11-01T15:18:05.057Z,98488.50
2022-11-01T15:20:39.957Z,98481.41
2022-11-01T15:23:20.278Z,98485.63
2022-11-01T15:25:55.038Z,98367.94
2022-11-01T15:28:26.047Z,98491.94
2022-11-01T15:30:58.387Z,98491.00
2022-11-01T15:33:31.541Z,98496.88
2022-11-01T15:36:00.568Z,98498.59
2022-11-01T15:38:28.105Z,98502.47
2022-11-01T15:40:54.576Z,98502.47
2022-11-01T15:43:24.779Z,98499.56
2022-11-01T15:45:54.410Z,98501.31
2022-11-01T15:48:25.468Z,98413.00
2022-11-01T15:50:57.334Z,98498.75
2022-11-01T15:53:27.057Z,98503.44
2022-11-01T15:56:17.995Z,98500.28
2022-11-01T15:58:57.443Z,98501.00
2022-11-01T16:01:24.987Z,98498.69
2022-11-01T16:04:00.481Z,98496.00
2022-11-01T16:06:39.165Z,98498.31
2022-11-01T16:09:25.942Z,98495.78
2022-11-01T16:11:57.330Z,98500.00
2022-11-01T16:14:29.419Z,98503.59
2022-11-01T16:17:19.565Z,98507.31
2022-11-01T16:19:48.222Z,98517.69
2022-11-01T16:22:32.987Z,98515.69
2022-11-01T16:25:11.569Z,98516.41
2022-11-01T16:28:07.295Z,98525.34
2022-11-01T16:30:54.761Z,98529.31
2022-11-01T16:33:29.071Z,98515.59
2022-11-01T16:36:01.301Z,98532.28
2022-11-01T16:38:33.513Z,98514.53
2022-11-01T16:41:02.056Z,98548.97
2022-11-01T16:43:31.702Z,98541.13
2022-11-01T16:45:59.099Z,98535.50
2022-11-01T16:48:31.893Z,98545.25
2022-11-01T16:51:00.276Z,98544.16
2022-11-01T16:53:30.250Z,98552.47
2022-11-01T16:56:30.916Z,98553.81
2022-11-01T16:58:56.983Z,98551.00
2022-11-01T17:01:29.054Z,98554.50
2022-11-01T17:04:01.019Z,98447.44
2022-11-01T17:06:27.564Z,98559.03
2022-11-01T17:08:54.191Z,98567.13
2022-11-01T17:11:21.225Z,98570.16
2022-11-01T17:13:47.680Z,98573.34
2022-11-01T17:16:24.490Z,98577.38
2022-11-01T17:18:54.828Z,98573.09
2022-11-01T17:21:22.376Z,98531.31
2022-11-01T17:23:51.034Z,98596.50
2022-11-01T17:26:19.250Z,98592.88
2022-11-01T17:28:51.367Z,98577.38
2022-11-01T17:31:18.861Z,98597.34
2022-11-01T17:33:45.329Z,98592.53
2022-11-01T17:36:16.316Z,98586.06
2022-11-01T17:38:44.831Z,98597.88
2022-11-01T17:41:16.951Z,98587.69
2022-11-01T17:43:43.537Z,98586.31
2022-11-01T17:46:15.491Z,98585.69
2022-11-01T17:48:42.667Z,98595.28
2022-11-01T17:51:09.367Z,98567.41
2022-11-01T17:53:39.146Z,98541.47
2022-11-01T17:56:06.298Z,98593.13
2022-11-01T17:58:32.778Z,98595.19
2022-11-01T18:00:59.301Z,98595.59
2022-11-01T18:03:26.296Z,98605.47
2022-11-01T18:05:58.500Z,98604.22
2022-11-01T18:08:28.315Z,98570.09
2022-11-01T18:11:25.525Z,98603.19
2022-11-01T18:14:22.387Z,98599.75
2022-11-01T18:17:10.714Z,98606.13
2022-11-01T18:19:47.939Z,98581.94
2022-11-01T18:22:35.686Z,98606.47
2022-11-01T18:25:21.057Z,98603.03
2022-11-01T18:27:47.583Z,98594.50
2022-11-01T18:30:17.445Z,98605.56
2022-11-01T18:33:02.805Z,98603.97
2022-11-01T18:35:51.351Z,98604.31
2022-11-01T18:38:32.201Z,98596.56
2022-11-01T18:41:03.675Z,98597.41
2022-11-01T18:43:40.511Z,98593.53
2022-11-01T18:46:25.098Z,98592.31
2022-11-01T18:48:59.971Z,98563.50
2022-11-01T18:51:29.844Z,98574.03
2022-11-01T18:54:17.832Z,98591.59
2022-11-01T18:56:50.568Z,98593.03
2022-11-01T18:59:29.893Z,98596.53
2022-11-01T19:02:03.386Z,98598.06
2022-11-01T19:04:31.520Z,98499.88
2022-11-01T19:07:09.688Z,98583.25
2022-11-01T19:09:39.668Z,98529.66
2022-11-01T19:12:17.306Z,98584.00
2022-11-01T19:14:46.454Z,98595.47
2022-11-01T19:17:23.557Z,98592.59
2022-11-01T19:19:52.503Z,98598.34
2022-11-01T19:22:38.370Z,98589.78
2022-11-01T19:25:15.540Z,98593.69
2022-11-01T19:27:43.063Z,98598.03
2022-11-01T19:30:36.717Z,98602.38
2022-11-01T19:33:18.157Z,98593.19
2022-11-01T19:35:44.939Z,98586.22
2022-11-01T19:38:15.399Z,98594.81
2022-11-01T19:40:43.961Z,98601.81
2022-11-01T19:43:16.377Z,98596.06
2022-11-01T19:45:50.278Z,98594.03
2022-11-01T19:48:20.993Z,98599.56
2022-11-01T19:50:47.962Z,98597.31
2022-11-01T19:53:24.595Z,98605.91
2022-11-01T19:56:00.155Z,98604.88
2022-11-01T19:58:30.922Z,98605.50
2022-11-01T20:01:06.485Z,98608.78
2022-11-01T20:03:57.728Z,98612.06
2022-11-01T20:06:27.175Z,98609.38
2022-11-01T20:08:55.539Z,98610.78
2022-11-01T20:11:21.984Z,98609.16
2022-11-01T20:13:48.880Z,98600.38
2022-11-01T20:16:15.399Z,98614.91
2022-11-01T20:18:41.906Z,98616.34
2022-11-01T20:21:08.443Z,98621.47
2022-11-01T20:23:36.300Z,98616.97
2022-11-01T20:26:03.872Z,98625.94
2022-11-01T20:28:31.702Z,98627.00
2022-11-01T20:30:58.534Z,98627.81
2022-11-01T20:33:25.652Z,98632.09
2022-11-01T20:35:52.738Z,98628.22
2022-11-01T20:40:51.059Z,98632.50
2022-11-01T20:43:17.612Z,98633.75
2022-11-01T20:45:44.112Z,98628.41
2022-11-01T20:48:10.526Z,98631.47
2022-11-01T20:50:37.068Z,98637.44
2022-11-01T20:53:05.422Z,98632.88
2022-11-01T20:55:32.212Z,98647.59
2022-11-01T20:57:58.605Z,98648.81
2022-11-01T21:00:25.708Z,98655.78
2022-11-01T21:02:53.789Z,98653.72
2022-11-01T21:05:24.003Z,98601.75
2022-11-01T21:07:56.969Z,98648.84
2022-11-01T21:10:29.266Z,98656.00
2022-11-01T21:12:56.325Z,98653.97
2022-11-01T21:15:25.700Z,98658.91
2022-11-01T21:18:07.503Z,98653.19
2022-11-01T21:20:42.268Z,98603.81
2022-11-01T21:23:20.792Z,98651.09
2022-11-01T21:25:57.871Z,98657.25
2022-11-01T21:28:32.549Z,98657.03
2022-11-01T21:31:26.967Z,98654.16
2022-11-01T21:33:56.624Z,98655.00
2022-11-01T21:36:32.603Z,98665.19
2022-11-01T21:39:01.327Z,98667.41
2022-11-01T21:41:44.137Z,98673.97
2022-11-01T21:44:40.108Z,98666.63
2022-11-01T21:47:06.502Z,98669.69
2022-11-01T21:49:33.432Z,98676.59
2022-11-01T21:52:02.418Z,98665.16
2022-11-01T21:54:31.658Z,98660.25
2022-11-01T21:56:58.122Z,98658.66
2022-11-01T21:59:25.273Z,98663.56
2022-11-01T22:01:51.857Z,98659.47
2022-11-01T22:04:18.584Z,98662.97
2022-11-01T22:06:47.784Z,98661.97
2022-11-01T22:09:17.929Z,98655.84
2022-11-01T22:11:45.034Z,98669.75
2022-11-01T22:14:12.279Z,98658.06
2022-11-01T22:16:39.180Z,98650.53
2022-11-01T22:19:06.541Z,98655.84
2022-11-01T22:21:33.311Z,98663.59
2022-11-01T22:24:00.037Z,98652.97
2022-11-01T22:26:26.631Z,98657.88
2022-11-01T22:28:53.251Z,98648.88
2022-11-01T22:31:20.445Z,98650.94
2022-11-01T22:33:49.606Z,98653.78
2022-11-01T22:36:39.895Z,98658.28
2022-11-01T22:39:17.093Z,98659.50
2022-11-01T22:41:43.887Z,98648.25
2022-11-01T22:44:14.341Z,98648.88
2022-11-01T22:46:46.684Z,98625.53
2022-11-01T22:49:30.760Z,98648.88
2022-11-01T22:52:15.996Z,98646.03
2022-11-01T22:54:51.979Z,98649.06
2022-11-01T22:57:21.617Z,98648.69
2022-11-01T22:59:52.179Z,98650.91
2022-11-01T23:02:24.862Z,98644.38
2022-11-01T23:04:57.766Z,98647.47
2022-11-01T23:07:46.354Z,98648.47
2022-11-01T23:10:31.734Z,98648.88
2022-11-01T23:13:31.711Z,98658.53
2022-11-01T23:16:03.205Z,98654.41
2022-11-01T23:18:32.857Z,98653.78
2022-11-01T23:21:05.437Z,98657.06
2022-11-01T23:23:39.942Z,98654.22
2022-11-01T23:26:06.697Z,98637.41
2022-11-01T23:28:37.129Z,98650.53
2022-11-01T23:31:04.997Z,98642.94
2022-11-01T23:33:39.831Z,98647.25
2022-11-01T23:36:15.834Z,98641.50
2022-11-01T23:38:48.524Z,98653.00
2022-11-01T23:41:22.938Z,98647.47
2022-11-01T23:43:53.768Z,98637.41
2022-11-01T23:46:20.416Z,98639.06
2022-11-01T23:48:48.091Z,98638.88
2022-11-01T23:51:19.761Z,98638.47
2022-11-01T23:53:48.979Z,98636.19
2022-11-01T23:56:18.685Z,98637.44
2022-11-01T23:58:54.049Z,98627.19
